Time;durP1;ratioP1;P1;durP2;ratioP2;P2;SDS_P1;SDS_P2;PMS_P1;PMS_P2;Temp;Humidity;BMP_temperature;BMP_pressure;BME280_temperature;BME280_humidity;BME280_pressure;Samples;Min_cycle;Max_cycle;Signal;HPM_P1;HPM_P2
2023/05/29 00:00:35;;;;;;;1.50;1.50;;;;;;;16.34;100.00;96602.66;5107114;28;20592;-61
2023/05/29 00:03:04;;;;;;;1.50;1.50;;;;;;;16.70;100.00;96639.38;5106508;28;20542;-62
2023/05/29 00:05:31;;;;;;;1.50;1.50;;;;;;;16.74;100.00;96631.72;5107104;28;20126;-63
2023/05/29 00:07:58;;;;;;;1.45;1.45;;;;;;;16.70;100.00;96647.75;5107187;28;20069;-62
2023/05/29 00:10:25;;;;;;;1.30;1.30;;;;;;;15.78;100.00;96497.16;5106655;28;20043;-63
2023/05/29 00:12:52;;;;;;;1.70;1.70;;;;;;;16.74;100.00;96654.09;5105660;28;20055;-61
2023/05/29 00:15:18;;;;;;;1.60;1.60;;;;;;;16.20;100.00;96558.91;5107043;28;20055;-61
2023/05/29 00:17:46;;;;;;;1.50;1.50;;;;;;;16.80;100.00;96647.63;5107215;28;20059;-63
2023/05/29 00:20:13;;;;;;;1.50;1.50;;;;;;;16.80;100.00;96664.41;5106895;28;20047;-62
2023/05/29 00:22:40;;;;;;;1.50;1.50;;;;;;;16.73;100.00;96621.75;5105113;28;20132;-63
2023/05/29 00:25:07;;;;;;;1.58;1.58;;;;;;;16.84;100.00;96641.97;5096801;28;20064;-63
2023/05/29 00:27:35;;;;;;;1.60;1.60;;;;;;;16.86;100.00;96656.34;5064504;28;20412;-62
2023/05/29 00:30:03;;;;;;;1.60;1.60;;;;;;;16.94;100.00;96643.84;5064320;28;20048;-62
2023/05/29 00:32:29;;;;;;;1.50;1.50;;;;;;;16.96;100.00;96644.22;5065967;28;20048;-62
2023/05/29 00:34:56;;;;;;;1.60;1.60;;;;;;;16.44;100.00;96552.22;5065562;28;20055;-65
2023/05/29 00:37:23;;;;;;;1.77;1.77;;;;;;;16.91;100.00;96641.88;5065426;28;20093;-62
2023/05/29 00:39:50;;;;;;;1.70;1.70;;;;;;;16.87;100.00;96652.31;5064364;28;20048;-64
2023/05/29 00:42:17;;;;;;;1.77;1.77;;;;;;;16.83;100.00;96648.78;5065384;28;20082;-63
2023/05/29 00:44:43;;;;;;;1.52;1.52;;;;;;;16.72;100.00;96628.56;5065420;28;20048;-62
2023/05/29 00:47:10;;;;;;;1.60;1.60;;;;;;;17.03;100.00;96666.47;5063825;28;20052;-62
2023/05/29 00:49:37;;;;;;;1.70;1.70;;;;;;;16.98;100.00;96652.94;5064318;28;20510;-62
2023/05/29 00:52:06;;;;;;;1.40;1.40;;;;;;;17.04;100.00;96648.50;5065342;28;20466;-62
2023/05/29 00:54:33;;;;;;;1.50;1.50;;;;;;;17.00;100.00;96650.53;5064062;28;20052;-64
2023/05/29 00:57:02;;;;;;;1.67;1.67;;;;;;;16.91;100.00;96653.06;5065103;28;20068;-64
2023/05/29 00:59:32;;;;;;;1.40;1.40;;;;;;;16.81;100.00;96654.00;5065037;28;20051;-63
2023/05/29 01:02:02;;;;;;;1.50;1.50;;;;;;;15.93;100.00;96555.22;5065176;28;20053;-63
2023/05/29 01:04:29;;;;;;;1.50;1.50;;;;;;;16.70;100.00;96647.75;5065033;28;20415;-63
2023/05/29 01:06:57;;;;;;;1.50;1.50;;;;;;;16.56;100.00;96643.94;5065134;28;20083;-64
2023/05/29 01:09:23;;;;;;;1.73;1.73;;;;;;;16.56;100.00;96654.34;5063733;28;20401;-62
2023/05/29 01:12:18;;;;;;;1.50;1.50;;;;;;;16.49;100.00;96632.84;5063393;28;20058;-62
2023/05/29 01:14:47;;;;;;;1.50;1.50;;;;;;;16.45;100.00;96636.91;5065201;28;20423;-62
2023/05/29 01:17:22;;;;;;;1.52;1.52;;;;;;;16.40;100.00;96646.50;5063554;28;20446;-62
2023/05/29 01:20:06;;;;;;;1.52;1.52;;;;;;;16.40;100.00;96635.34;5064907;28;20118;-62
2023/05/29 01:23:01;;;;;;;1.52;1.52;;;;;;;16.30;100.00;96636.25;5065185;28;20859;-62
2023/05/29 01:25:50;;;;;;;1.40;1.40;;;;;;;16.28;100.00;96627.47;5078034;28;20047;-63
2023/05/29 01:28:21;;;;;;;1.50;1.50;;;;;;;16.34;100.00;96631.38;5105191;28;20059;-64
2023/05/29 01:30:50;;;;;;;1.50;1.50;;;;;;;16.18;100.00;96589.28;5105355;28;20079;-64
2023/05/29 01:33:17;;;;;;;1.58;1.58;;;;;;;16.37;100.00;96636.16;5103963;28;20055;-62
2023/05/29 01:35:44;;;;;;;1.40;1.40;;;;;;;14.20;100.00;96297.97;5103738;28;20047;-62
2023/05/29 01:38:11;;;;;;;1.60;1.60;;;;;;;16.23;100.00;96613.19;5104966;28;20505;-62
2023/05/29 01:40:38;;;;;;;1.40;1.40;;;;;;;15.62;100.00;96511.72;5105036;27;20050;-62
2023/05/29 01:43:05;;;;;;;1.48;1.48;;;;;;;16.36;100.00;96609.41;5103513;28;20069;-62
2023/05/29 01:45:33;;;;;;;1.50;1.50;;;;;;;16.28;100.00;96610.69;5105118;28;20575;-62
2023/05/29 01:47:59;;;;;;;1.50;1.50;;;;;;;16.22;100.00;96601.19;5104871;28;20063;-64
2023/05/29 01:50:28;;;;;;;1.60;1.60;;;;;;;16.17;100.00;96598.09;5104788;28;20130;-62
2023/05/29 01:52:55;;;;;;;1.50;1.50;;;;;;;16.11;100.00;96610.91;5104884;28;20056;-63
2023/05/29 01:55:22;;;;;;;1.30;1.30;;;;;;;16.20;100.00;96609.19;5104814;28;20058;-61
2023/05/29 01:57:49;;;;;;;1.60;1.60;;;;;;;16.18;100.00;96617.22;5105077;28;20051;-62
2023/05/29 02:00:18;;;;;;;1.45;1.45;;;;;;;16.23;100.00;96613.94;5104438;28;20055;-63
2023/05/29 02:02:45;;;;;;;1.35;1.35;;;;;;;16.13;100.00;96614.88;5104771;28;20104;-62
2023/05/29 02:05:12;;;;;;;1.63;1.63;;;;;;;16.31;100.00;96620.28;5104815;28;20185;-62
2023/05/29 02:07:38;;;;;;;1.40;1.40;;;;;;;16.42;100.00;96627.28;5104561;28;20055;-62
2023/05/29 02:10:05;;;;;;;1.52;1.52;;;;;;;16.15;100.00;96566.97;5105009;28;20077;-63
2023/05/29 02:12:32;;;;;;;1.50;1.50;;;;;;;16.52;100.00;96632.00;5104822;28;20178;-62
2023/05/29 02:14:59;;;;;;;1.60;1.60;;;;;;;16.56;100.00;96626.38;5102325;28;20055;-61
2023/05/29 02:17:25;;;;;;;1.73;1.73;;;;;;;16.44;100.00;96594.16;5104384;28;20051;-64
2023/05/29 02:19:52;;;;;;;1.50;1.50;;;;;;;16.60;100.00;96622.31;5103462;28;20066;-62
2023/05/29 02:22:19;;;;;;;1.50;1.50;;;;;;;16.79;100.00;96628.47;5103195;28;20450;-62
2023/05/29 02:24:45;;;;;;;1.60;1.60;;;;;;;16.69;100.00;96623.81;5102400;28;20039;-62
2023/05/29 02:27:12;;;;;;;1.38;1.38;;;;;;;16.73;100.00;96621.75;5083044;28;20051;-64
2023/05/29 02:29:39;;;;;;;1.60;1.60;;;;;;;16.63;100.00;96625.50;5081870;28;20055;-61
2023/05/29 02:32:06;;;;;;;1.50;1.50;;;;;;;16.58;100.00;96619.13;5082643;28;20052;-62
2023/05/29 02:34:33;;;;;;;1.48;1.48;;;;;;;16.44;100.00;96616.53;5083811;28;20075;-63
2023/05/29 02:36:59;;;;;;;1.50;1.50;;;;;;;16.43;100.00;96623.31;5083830;28;20669;-60
2023/05/29 02:39:26;;;;;;;1.60;1.60;;;;;;;16.30;100.00;96625.06;5065378;28;20427;-63
2023/05/29 02:41:53;;;;;;;1.40;1.40;;;;;;;16.39;100.00;96625.34;5063464;28;20067;-62
2023/05/29 02:44:20;;;;;;;1.52;1.52;;;;;;;16.53;100.00;96627.97;5063943;28;20052;-62
2023/05/29 02:46:47;;;;;;;1.40;1.40;;;;;;;16.05;100.00;96551.13;5061700;28;20538;-62
2023/05/29 02:49:18;;;;;;;1.48;1.48;;;;;;;16.49;100.00;96638.44;5063790;28;20157;-62
2023/05/29 02:51:45;;;;;;;1.52;1.52;;;;;;;16.53;100.00;96633.56;5078930;28;20076;-62
2023/05/29 02:54:12;;;;;;;1.35;1.35;;;;;;;16.69;100.00;96632.19;5063629;28;20431;-61
2023/05/29 02:56:38;;;;;;;1.30;1.30;;;;;;;16.69;100.00;96623.81;5063464;28;21039;-61
2023/05/29 02:59:05;;;;;;;1.40;1.40;;;;;;;16.30;99.56;96552.38;5062243;28;20134;-61
2023/05/29 03:01:32;;;;;;;1.48;1.48;;;;;;;16.53;100.00;96588.84;5062163;28;20055;-61
2023/05/29 03:03:59;;;;;;;1.60;1.60;;;;;;;16.50;99.01;96589.69;5063581;28;20122;-61
2023/05/29 03:06:26;;;;;;;1.50;1.50;;;;;;;17.00;100.00;96636.53;5063459;28;20151;-61
2023/05/29 03:08:53;;;;;;;1.50;1.50;;;;;;;16.84;99.44;96600.00;5063625;28;20164;-60
2023/05/29 03:11:23;;;;;;;1.52;1.52;;;;;;;17.24;98.25;96633.38;5062566;28;20053;-61
2023/05/29 03:13:50;;;;;;;1.52;1.52;;;;;;;17.27;97.23;96637.34;5063471;28;20055;-61
2023/05/29 03:16:17;;;;;;;1.50;1.50;;;;;;;17.32;96.11;96645.25;5063042;28;20059;-61
2023/05/29 03:18:43;;;;;;;1.80;1.80;;;;;;;16.87;95.16;96546.00;5063253;28;20139;-62
2023/05/29 03:21:10;;;;;;;1.80;1.80;;;;;;;17.54;94.51;96652.13;5063549;28;20048;-61
2023/05/29 03:23:37;;;;;;;1.50;1.50;;;;;;;17.60;93.82;96647.63;5063348;28;20063;-60
2023/05/29 03:26:05;;;;;;;1.80;1.80;;;;;;;17.60;94.95;96645.63;5095737;28;20050;-62
2023/05/29 03:28:32;;;;;;;1.80;1.80;;;;;;;17.64;93.71;96646.34;5105576;28;20055;-62
2023/05/29 03:30:59;;;;;;;1.60;1.60;;;;;;;17.14;94.53;96577.56;5107668;28;20506;-60
2023/05/29 03:33:25;;;;;;;1.67;1.67;;;;;;;17.64;95.28;96651.16;5106043;28;20077;-61
2023/05/29 03:35:52;;;;;;;1.80;1.80;;;;;;;17.61;95.82;96657.59;5107975;27;20051;-60
2023/05/29 03:38:19;;;;;;;1.75;1.75;;;;;;;17.78;94.94;96662.13;5107789;28;20164;-61
2023/05/29 03:40:45;;;;;;;1.70;1.70;;;;;;;17.90;94.16;96664.31;5107775;28;20054;-61
2023/05/29 03:43:12;;;;;;;1.50;1.50;;;;;;;17.71;93.82;96673.44;5106514;28;20063;-61
2023/05/29 03:45:39;;;;;;;1.80;1.80;;;;;;;17.65;95.82;96666.75;5107555;27;20067;-60
2023/05/29 03:48:05;;;;;;;1.60;1.60;;;;;;;17.49;95.74;96619.00;5106931;28;20411;-61
2023/05/29 03:50:32;;;;;;;1.58;1.58;;;;;;;17.98;94.81;96676.97;5106917;28;20101;-63
2023/05/29 03:52:59;;;;;;;1.70;1.70;;;;;;;18.15;94.52;96680.69;5106971;28;20063;-61
2023/05/29 03:55:27;;;;;;;1.50;1.50;;;;;;;18.27;94.44;96666.84;5105605;28;20052;-61
2023/05/29 03:57:55;;;;;;;1.83;1.83;;;;;;;18.34;93.22;96665.88;5106892;28;20056;-60
2023/05/29 04:00:22;;;;;;;1.67;1.67;;;;;;;18.46;93.06;96668.91;5105482;28;20485;-62
2023/05/29 04:02:48;;;;;;;1.50;1.50;;;;;;;18.27;91.81;96621.97;5107031;28;20051;-60
2023/05/29 04:05:15;;;;;;;1.80;1.80;;;;;;;18.44;91.53;96648.91;5107010;28;20130;-60
2023/05/29 04:07:42;;;;;;;1.52;1.52;;;;;;;18.58;90.42;96657.03;5106548;28;20142;-60
2023/05/29 04:10:09;;;;;;;1.73;1.73;;;;;;;18.78;89.42;96671.06;5106556;28;20043;-60
2023/05/29 04:12:36;;;;;;;1.67;1.67;;;;;;;18.74;88.56;96656.28;5106601;28;20510;-60
2023/05/29 04:15:03;;;;;;;1.77;1.77;;;;;;;18.75;90.38;96664.28;5106528;28;20418;-61
2023/05/29 04:17:29;;;;;;;1.75;1.75;;;;;;;18.89;89.94;96674.44;5106178;28;20609;-61
2023/05/29 04:19:56;;;;;;;2.17;2.17;;;;;;;18.93;90.50;96670.31;5106723;28;20051;-61
2023/05/29 04:22:23;;;;;;;1.85;1.85;;;;;;;18.90;87.70;96643.13;5106203;28;20060;-63
2023/05/29 04:24:49;;;;;;;1.67;1.67;;;;;;;19.16;87.49;96667.38;5105321;28;20442;-61
2023/05/29 04:27:17;;;;;;;1.83;1.83;;;;;;;19.38;86.84;96673.31;5088080;28;20052;-63
2023/05/29 04:29:44;;;;;;;1.80;1.80;;;;;;;19.42;84.69;96680.47;5086134;28;20055;-62
2023/05/29 04:32:11;;;;;;;1.80;1.80;;;;;;;19.48;84.46;96661.06;5085999;28;20499;-62
2023/05/29 04:34:44;;;;;;;1.75;1.75;;;;;;;19.59;82.28;96655.97;5085759;28;20484;-62
2023/05/29 04:37:11;;;;;;;1.70;1.70;;;;;;;19.34;82.98;96617.25;5086209;28;20055;-62
2023/05/29 04:39:37;;;;;;;1.75;1.75;;;;;;;19.85;82.01;96680.22;5085577;28;20915;-61
2023/05/29 04:42:05;;;;;;;1.92;1.92;;;;;;;19.78;82.11;96688.03;5085739;28;20052;-61
2023/05/29 04:44:32;;;;;;;2.00;2.00;;;;;;;19.69;81.84;96679.41;5085914;28;20048;-62
2023/05/29 04:47:02;;;;;;;1.90;1.90;;;;;;;19.87;82.00;96672.13;5085431;28;20597;-61
2023/05/29 04:49:29;;;;;;;1.90;1.90;;;;;;;19.89;82.58;96682.91;5085704;28;20058;-60
2023/05/29 04:52:00;;;;;;;2.00;2.00;;;;;;;20.02;81.34;96689.41;5085565;28;20051;-63
2023/05/29 04:54:27;;;;;;;2.00;2.00;;;;;;;19.32;79.70;96597.22;5084081;28;20044;-60
2023/05/29 04:56:54;;;;;;;1.95;1.95;;;;;;;20.03;79.73;96697.41;5085556;28;20151;-60
2023/05/29 04:59:20;;;;;;;1.90;1.90;;;;;;;19.96;80.47;96679.94;5085348;28;20423;-61
2023/05/29 05:01:48;;;;;;;1.80;1.80;;;;;;;19.88;80.44;96664.47;5085632;28;20052;-61
2023/05/29 05:04:14;;;;;;;1.92;1.92;;;;;;;19.96;80.52;96660.25;2351814;28;10002110;-61
2023/05/29 05:06:43;;;;;;;2.08;2.08;;;;;;;20.18;79.47;96698.69;5053579;28;20051;-61
2023/05/29 05:09:10;;;;;;;1.77;1.77;;;;;;;20.30;79.67;96692.31;5083719;28;20048;-61
2023/05/29 05:11:37;;;;;;;2.00;2.00;;;;;;;20.24;78.67;96691.28;5083352;28;20048;-61
2023/05/29 05:14:04;;;;;;;2.08;2.08;;;;;;;19.90;78.15;96659.22;5085177;28;20064;-61
2023/05/29 05:16:32;;;;;;;2.13;2.13;;;;;;;20.14;78.22;96700.00;5084640;28;20055;-62
2023/05/29 05:18:59;;;;;;;1.80;1.80;;;;;;;19.92;77.35;96642.69;5084919;28;20451;-63
2023/05/29 05:21:26;;;;;;;2.00;2.00;;;;;;;20.30;77.88;96705.59;5085363;28;20131;-61
2023/05/29 05:23:53;;;;;;;2.05;2.05;;;;;;;20.36;76.54;96706.66;5083352;28;20446;-61
2023/05/29 05:26:26;;;;;;;2.05;2.05;;;;;;;20.05;76.61;96677.28;5085262;28;20156;-61
2023/05/29 05:28:53;;;;;;;1.90;1.90;;;;;;;19.90;76.84;96667.66;5085139;28;20127;-61
2023/05/29 05:31:20;;;;;;;2.00;2.00;;;;;;;20.41;75.22;96711.72;5084419;28;20514;-61
2023/05/29 05:33:46;;;;;;;1.92;1.92;;;;;;;19.85;74.31;96691.47;5084540;28;20136;-62
2023/05/29 05:36:14;;;;;;;1.83;1.83;;;;;;;19.52;77.75;96712.34;5084350;28;20582;-61
2023/05/29 05:38:41;;;;;;;1.90;1.90;;;;;;;18.01;75.88;96447.09;5081649;28;20404;-60
2023/05/29 05:41:07;;;;;;;1.70;1.70;;;;;;;19.02;74.20;96678.94;5063348;28;20495;-63
2023/05/29 05:43:34;;;;;;;1.50;1.50;;;;;;;19.45;76.51;96712.50;5079079;28;20052;-61
2023/05/29 05:46:01;;;;;;;1.90;1.90;;;;;;;19.65;76.46;96720.88;5056011;28;20048;-65
2023/05/29 05:48:28;;;;;;;1.70;1.70;;;;;;;19.47;75.83;96688.34;5055092;28;20060;-71
2023/05/29 05:50:55;;;;;;;1.77;1.77;;;;;;;18.96;75.20;96590.03;5046959;28;20044;-62
2023/05/29 05:53:22;;;;;;;2.00;2.00;;;;;;;19.49;77.39;96725.22;5043943;28;20128;-63
2023/05/29 05:55:48;;;;;;;1.90;1.90;;;;;;;19.73;77.15;96722.31;5044193;28;20439;-71
2023/05/29 05:58:15;;;;;;;1.80;1.80;;;;;;;19.95;76.50;96723.34;5044487;28;20052;-60
2023/05/29 06:00:42;;;;;;;1.95;1.95;;;;;;;19.49;76.49;96615.66;5056066;28;20067;-62
2023/05/29 06:03:09;;;;;;;1.80;1.80;;;;;;;20.22;76.52;96687.31;5044839;28;20440;-65
2023/05/29 06:05:37;;;;;;;2.10;2.10;;;;;;;19.94;75.19;96606.47;5044162;28;20045;-76
2023/05/29 06:08:05;;;;;;;2.00;2.00;;;;;;;20.55;74.74;96705.72;5059578;28;20076;-72
2023/05/29 06:10:32;;;;;;;1.95;1.95;;;;;;;20.76;74.44;96716.38;5043661;28;20507;-60
2023/05/29 06:12:59;;;;;;;2.00;2.00;;;;;;;20.92;73.74;96719.94;5053814;28;20056;-61
2023/05/29 06:15:26;;;;;;;2.20;2.20;;;;;;;20.67;71.64;96668.38;5061416;28;20056;-63
2023/05/29 06:17:55;;;;;;;2.05;2.05;;;;;;;20.53;71.69;96623.75;5050217;28;20044;-61
2023/05/29 06:20:23;;;;;;;2.28;2.28;;;;;;;20.74;71.68;96617.50;5055676;28;20090;-67
2023/05/29 06:22:50;;;;;;;2.50;2.40;;;;;;;20.61;70.00;96636.41;5063550;28;20048;-62
2023/05/29 06:25:20;;;;;;;2.10;2.10;;;;;;;21.22;70.33;96693.34;5063342;28;20059;-70
2023/05/29 06:27:46;;;;;;;2.20;2.20;;;;;;;21.36;71.23;96743.63;5051721;28;20055;-63
2023/05/29 06:30:15;;;;;;;2.40;2.35;;;;;;;21.50;69.79;96726.28;5063815;28;20053;-74
2023/05/29 06:32:41;;;;;;;2.20;2.20;;;;;;;20.78;70.54;96630.25;5053576;28;20470;-68
2023/05/29 06:35:08;;;;;;;2.20;2.20;;;;;;;21.16;70.14;96664.13;5043231;28;20518;-62
2023/05/29 06:37:35;;;;;;;2.28;2.25;;;;;;;20.95;69.74;96616.88;5042515;28;20052;-62
2023/05/29 06:40:02;;;;;;;2.30;2.30;;;;;;;21.74;68.73;96724.72;5062311;28;20055;-62
2023/05/29 06:42:30;;;;;;;2.20;2.20;;;;;;;21.76;67.06;96727.09;5056506;28;20110;-61
2023/05/29 06:44:57;;;;;;;2.42;2.33;;;;;;;20.77;69.73;96706.72;5045634;28;20052;-64
2023/05/29 06:47:24;;;;;;;2.05;2.05;;;;;;;21.14;69.92;96697.59;5051647;28;20056;-64
2023/05/29 06:49:51;;;;;;;2.20;2.20;;;;;;;21.09;67.94;96706.59;5062009;28;20517;-62
2023/05/29 06:52:17;;;;;;;2.13;2.13;;;;;;;20.49;70.10;96702.66;5062751;28;20118;-75
2023/05/29 06:54:44;;;;;;;2.20;2.20;;;;;;;20.29;71.59;96732.16;5053210;28;20044;-67
2023/05/29 06:57:11;;;;;;;2.05;2.05;;;;;;;20.41;72.37;96729.41;5061152;28;20057;-71
2023/05/29 06:59:38;;;;;;;1.85;1.85;;;;;;;20.44;70.48;96705.19;5062173;28;20052;-61
2023/05/29 07:02:05;;;;;;;1.80;1.80;;;;;;;20.82;71.02;96739.94;5064164;28;20573;-70
2023/05/29 07:04:32;;;;;;;1.85;1.85;;;;;;;20.78;70.13;96733.63;5062465;28;20055;-62
2023/05/29 07:06:59;;;;;;;2.00;2.00;;;;;;;20.84;70.61;96729.03;5055866;28;20501;-63
2023/05/29 07:09:27;;;;;;;2.38;2.35;;;;;;;21.09;68.93;96740.41;5048092;28;20148;-69
2023/05/29 07:11:54;;;;;;;2.03;2.03;;;;;;;20.90;69.24;96749.78;5066067;28;20041;-64
2023/05/29 07:14:21;;;;;;;2.30;2.30;;;;;;;21.09;68.61;96729.13;5049124;28;20152;-65
2023/05/29 07:16:47;;;;;;;2.25;2.25;;;;;;;21.74;68.20;96741.63;5045945;28;20122;-70
2023/05/29 07:19:14;;;;;;;2.15;2.15;;;;;;;21.29;65.66;96631.13;5045069;28;20551;-75
2023/05/29 07:21:47;;;;;;;2.08;2.08;;;;;;;21.37;66.17;96705.72;5060712;28;20139;-62
2023/05/29 07:24:14;;;;;;;2.30;2.30;;;;;;;21.62;67.12;96750.88;5066905;28;20135;-70
2023/05/29 07:26:41;;;;;;;2.38;2.30;;;;;;;21.79;65.93;96743.91;5065496;28;20088;-73
2023/05/29 07:29:08;;;;;;;2.17;2.17;;;;;;;21.23;67.15;96711.81;5048157;28;20404;-63
2023/05/29 07:31:36;;;;;;;2.15;2.15;;;;;;;19.72;66.58;96446.06;5047026;28;20056;-61
2023/05/29 07:34:02;;;;;;;2.20;2.20;;;;;;;21.78;67.34;96750.03;5045886;28;20120;-69
2023/05/29 07:36:31;;;;;;;2.10;2.10;;;;;;;21.72;67.06;96748.97;5045493;28;20053;-70
2023/05/29 07:38:58;;;;;;;2.33;2.30;;;;;;;21.40;66.67;96716.13;5062332;28;20052;-72
2023/05/29 07:41:26;;;;;;;2.20;2.20;;;;;;;21.50;69.05;96712.19;5064739;28;20037;-64
2023/05/29 07:43:55;;;;;;;2.22;2.22;;;;;;;20.93;66.49;96692.56;5061206;28;20159;-74
2023/05/29 07:46:22;;;;;;;2.17;2.17;;;;;;;21.22;67.88;96676.44;5044546;28;20072;-71
2023/05/29 07:48:49;;;;;;;2.22;2.22;;;;;;;21.58;68.87;96750.19;5056701;28;20048;-66
2023/05/29 07:51:16;;;;;;;2.38;2.30;;;;;;;22.15;67.28;96761.28;5057897;28;20053;-64
2023/05/29 07:53:46;;;;;;;2.25;2.25;;;;;;;21.62;66.72;96643.75;5050662;28;20061;-63
2023/05/29 07:56:13;;;;;;;2.50;2.40;;;;;;;22.08;64.95;96682.50;5045483;28;20132;-75
2023/05/29 07:58:41;;;;;;;2.50;2.40;;;;;;;22.63;64.56;96762.09;5063692;28;20246;-65
2023/05/29 08:01:08;;;;;;;2.28;2.28;;;;;;;22.96;63.65;96757.69;5053544;28;20063;-66
2023/05/29 08:03:35;;;;;;;2.78;2.67;;;;;;;23.14;61.46;96757.84;5044511;28;20057;-69
2023/05/29 08:06:02;;;;;;;2.35;2.28;;;;;;;22.50;62.28;96759.28;5045068;28;20401;-64
2023/05/29 08:08:30;;;;;;;2.00;2.00;;;;;;;21.66;66.13;96764.84;5055381;28;20482;-62
2023/05/29 08:10:56;;;;;;;2.40;2.30;;;;;;;20.78;68.74;96708.28;5059188;28;20076;-68
2023/05/29 08:13:23;;;;;;;2.22;2.22;;;;;;;21.19;69.24;96711.13;5058569;28;20594;-62
2023/05/29 08:15:50;;;;;;;2.47;2.38;;;;;;;22.06;67.35;96764.00;5054515;28;20052;-61
2023/05/29 08:18:17;;;;;;;2.20;2.20;;;;;;;22.28;65.25;96764.88;5058447;28;20059;-63
2023/05/29 08:20:44;;;;;;;2.13;2.13;;;;;;;22.11;66.09;96766.22;5045962;28;20049;-62
2023/05/29 08:23:11;;;;;;;2.20;2.20;;;;;;;21.84;64.88;96763.09;5045231;28;20605;-59
2023/05/29 08:25:38;;;;;;;2.10;2.10;;;;;;;22.26;65.40;96760.91;5055511;28;20080;-68
2023/05/29 08:28:05;;;;;;;2.08;2.08;;;;;;;21.57;65.08;96680.97;5046528;28;20049;-60
2023/05/29 08:30:31;;;;;;;2.60;2.50;;;;;;;21.88;67.70;96769.41;5055208;28;20514;-63
2023/05/29 08:32:58;;;;;;;2.40;2.30;;;;;;;22.33;68.83;96769.97;5057517;28;20045;-62
2023/05/29 08:35:25;;;;;;;2.20;2.20;;;;;;;21.50;68.23;96709.38;5045069;28;20049;-61
2023/05/29 08:37:52;;;;;;;2.47;2.38;;;;;;;20.36;71.80;96686.97;5055236;28;20126;-61
2023/05/29 08:40:19;;;;;;;2.35;2.33;;;;;;;21.55;71.70;96767.19;5064793;28;20054;-60
2023/05/29 08:43:10;;;;;;;2.60;2.50;;;;;;;21.88;68.68;96772.22;5065285;28;20064;-60
2023/05/29 08:45:44;;;;;;;2.50;2.40;;;;;;;21.89;70.11;96779.44;5064222;28;20049;-69
2023/05/29 08:48:12;;;;;;;2.33;2.33;;;;;;;21.75;73.08;96770.63;5047628;28;20128;-61
2023/05/29 08:50:46;;;;;;;2.15;2.15;;;;;;;22.39;67.53;96776.59;5046518;28;20106;-65
2023/05/29 08:53:16;;;;;;;2.63;2.53;;;;;;;22.86;65.75;96764.53;5045159;28;20080;-79
2023/05/29 08:55:43;;;;;;;2.60;2.50;;;;;;;23.33;63.63;96762.41;5044942;28;20503;-69
2023/05/29 08:58:11;;;;;;;2.58;2.47;;;;;;;23.20;61.45;96756.00;5053265;28;20110;-75
2023/05/29 09:00:40;;;;;;;2.83;2.72;;;;;;;23.03;63.16;96763.88;5049427;28;20064;-74
2023/05/29 09:03:07;;;;;;;2.90;2.80;;;;;;;23.73;58.59;96760.44;5044590;28;20545;-73
2023/05/29 09:05:39;;;;;;;2.70;2.60;;;;;;;22.71;61.14;96712.59;5050133;28;20050;-63
2023/05/29 09:08:08;;;;;;;2.97;2.88;;;;;;;22.60;62.20;96763.03;5063945;28;20060;-65
2023/05/29 09:10:35;;;;;;;2.88;2.78;;;;;;;23.04;61.56;96725.09;5062851;28;20430;-68
2023/05/29 09:13:05;;;;;;;2.85;2.75;;;;;;;22.92;60.67;96692.84;5059974;28;20519;-64
2023/05/29 09:15:31;;;;;;;2.83;2.72;;;;;;;22.42;62.93;96758.75;5059029;28;20049;-63
2023/05/29 09:17:58;;;;;;;2.65;2.55;;;;;;;22.64;61.81;96678.97;5044394;28;20139;-68
2023/05/29 09:20:27;;;;;;;2.72;2.63;;;;;;;23.01;59.36;96655.41;5044759;28;20055;-67
2023/05/29 09:22:54;;;;;;;3.05;2.95;;;;;;;23.95;59.25;96743.41;5051711;28;20040;-70
2023/05/29 09:25:26;;;;;;;2.92;2.83;;;;;;;23.76;58.96;96714.25;5056497;28;20060;-63
2023/05/29 09:28:05;;;;;;;3.50;3.40;;;;;;;23.52;59.14;96642.50;5049877;28;20781;-63
2023/05/29 09:30:42;;;;;;;3.00;2.90;;;;;;;24.44;58.89;96747.84;5053562;28;20077;-67
2023/05/29 09:33:11;;;;;;;3.33;3.22;;;;;;;24.68;57.25;96723.34;5056012;28;20147;-69
2023/05/29 09:35:43;;;;;;;3.30;3.20;;;;;;;24.52;54.11;96754.78;5045183;28;20057;-65
2023/05/29 09:38:15;;;;;;;3.60;3.50;;;;;;;24.40;54.91;96747.22;5049760;28;20065;-68
2023/05/29 09:41:05;;;;;;;3.03;2.92;;;;;;;23.51;56.14;96663.53;5051089;28;20095;-64
2023/05/29 09:43:33;;;;;;;3.22;3.13;;;;;;;21.33;57.54;96436.56;5043955;28;20065;-73
2023/05/29 09:46:01;;;;;;;2.83;2.72;;;;;;;22.79;59.56;96759.13;5069871;28;20041;-63
2023/05/29 09:48:30;;;;;;;2.65;2.55;;;;;;;23.03;57.91;96763.09;5079638;28;20051;-64
2023/05/29 09:50:57;;;;;;;2.53;2.42;;;;;;;23.16;58.94;96749.69;5071131;28;20049;-63
2023/05/29 09:53:26;;;;;;;2.90;2.80;;;;;;;23.18;57.09;96671.69;5059061;28;20087;-63
2023/05/29 09:55:56;;;;;;;2.88;2.78;;;;;;;23.65;56.49;96697.69;5063948;28;20056;-68
2023/05/29 09:58:24;;;;;;;2.90;2.80;;;;;;;23.77;55.41;96659.25;5063672;28;20476;-63
2023/05/29 10:00:53;;;;;;;2.70;2.60;;;;;;;23.10;58.56;96712.75;5054160;28;20051;-62
2023/05/29 10:03:21;;;;;;;3.20;3.10;;;;;;;22.73;58.68;96602.81;5053679;28;20571;-67
2023/05/29 10:05:56;;;;;;;2.63;2.53;;;;;;;22.84;61.01;96724.66;5042500;28;20102;-64
2023/05/29 10:08:25;;;;;;;2.58;2.47;;;;;;;22.37;60.10;96727.47;5047754;28;20523;-62
2023/05/29 10:11:01;;;;;;;2.60;2.50;;;;;;;22.22;61.32;96721.53;5043925;28;20445;-64
2023/05/29 10:13:33;;;;;;;2.72;2.63;;;;;;;22.63;60.36;96728.22;5043552;28;20148;-66
2023/05/29 10:16:03;;;;;;;2.45;2.38;;;;;;;22.48;61.69;96723.03;5044690;28;20061;-65
2023/05/29 10:18:44;;;;;;;2.25;2.25;;;;;;;21.64;63.21;96584.88;5063348;28;20094;-65
2023/05/29 10:21:12;;;;;;;2.58;2.47;;;;;;;22.01;64.49;96716.59;5062927;28;20051;-65
2023/05/29 10:23:43;;;;;;;2.53;2.45;;;;;;;21.78;63.36;96623.13;5062578;28;20059;-66
2023/05/29 10:26:23;;;;;;;2.47;2.38;;;;;;;22.89;62.48;96701.47;5060561;28;20060;-64
2023/05/29 10:29:02;;;;;;;2.67;2.58;;;;;;;22.71;60.83;96667.41;5062446;28;20045;-67
2023/05/29 10:31:39;;;;;;;2.50;2.40;;;;;;;22.80;60.30;96659.00;5062793;28;20508;-68
2023/05/29 10:34:23;;;;;;;2.63;2.53;;;;;;;23.30;59.24;96670.81;5063182;28;20079;-68
2023/05/29 10:37:02;;;;;;;2.70;2.60;;;;;;;23.09;60.10;96705.53;5042571;28;20064;-61
2023/05/29 10:39:29;;;;;;;2.67;2.58;;;;;;;23.78;57.59;96689.13;5041998;28;20053;-62
2023/05/29 10:41:58;;;;;;;3.00;2.90;;;;;;;24.09;56.90;96695.53;5042958;28;20061;-62
2023/05/29 10:44:30;;;;;;;3.22;3.13;;;;;;;24.58;54.72;96686.97;5043189;28;20430;-64
2023/05/29 10:47:00;;;;;;;3.37;3.27;;;;;;;24.69;53.25;96684.50;5043377;28;20048;-61
2023/05/29 10:49:27;;;;;;;3.25;3.15;;;;;;;24.25;53.40;96593.34;5043384;28;20086;-72
2023/05/29 10:51:53;;;;;;;3.33;3.22;;;;;;;24.62;54.25;96679.88;5059304;28;20052;-61
2023/05/29 10:54:25;;;;;;;2.97;2.88;;;;;;;23.72;55.29;96634.41;5059703;28;20144;-61
2023/05/29 10:56:55;;;;;;;2.70;2.60;;;;;;;24.12;56.83;96669.13;5045336;28;20053;-62
2023/05/29 10:59:25;;;;;;;3.20;3.10;;;;;;;24.31;56.83;96676.38;5042750;28;20064;-64
2023/05/29 11:01:53;;;;;;;2.80;2.70;;;;;;;23.19;56.78;96550.94;5049162;28;20060;-64
2023/05/29 11:04:20;;;;;;;2.65;2.55;;;;;;;23.11;58.08;96657.03;5044376;28;20053;-61
2023/05/29 11:06:47;;;;;;;2.80;2.70;;;;;;;22.89;59.56;96656.28;5045320;28;20049;-66
2023/05/29 11:09:34;;;;;;;2.40;2.33;;;;;;;23.02;58.52;96665.44;5046676;28;20119;-61
2023/05/29 11:12:35;;;;;;;2.83;2.72;;;;;;;22.59;59.58;96659.81;5056974;28;20523;-63
2023/05/29 11:15:05;;;;;;;2.42;2.35;;;;;;;22.81;60.05;96655.72;5059124;28;20098;-68
2023/05/29 11:17:38;;;;;;;2.60;2.50;;;;;;;23.39;58.39;96658.78;5050354;28;20061;-68
2023/05/29 11:20:16;;;;;;;2.40;2.30;;;;;;;23.43;56.36;96667.91;5059387;28;20807;-65
2023/05/29 11:22:48;;;;;;;2.90;2.80;;;;;;;23.32;59.82;96661.88;5045426;28;20376;-67
2023/05/29 11:25:15;;;;;;;2.55;2.45;;;;;;;23.24;58.63;96660.53;5054444;28;20517;-65
2023/05/29 11:27:45;;;;;;;2.78;2.67;;;;;;;23.44;55.61;96658.19;5057484;28;20448;-63
2023/05/29 11:30:12;;;;;;;3.00;2.90;;;;;;;23.39;57.00;96658.78;5048778;28;20508;-64
2023/05/29 11:32:40;;;;;;;3.00;2.90;;;;;;;24.08;57.77;96667.69;5052750;28;20452;-61
2023/05/29 11:35:10;;;;;;;2.70;2.60;;;;;;;24.66;54.56;96640.88;5042678;28;20045;-62
2023/05/29 11:37:43;;;;;;;3.10;3.00;;;;;;;24.38;55.49;96664.75;5042678;28;20130;-61